FW2588 Weather Reports


Display with metric or nautical units.
time (UTC)temp
F
wind
direction
speed
MPH
gust
MPH
rain 1hr
in
rain 24hr
in
rain mn
in
humidity
%
barometer
mb
20190525010137 74 78 0.0 2.0 0.00 0.00 0.00 71 1018.2
20190525004633 75 78 1.0 3.0 0.00 0.00 0.00 66 1018.2
20190525003235 77 335 0.0 3.0 0.00 0.00 0.00 63 1018.1
20190525001653 78 332 2.0 5.0 0.00 0.00 0.00 60 1018.1
20190524234612 79 331 2.0 8.0 0.00 0.00 0.00 60 1017.9
20190524233140 80 348 4.0 10.0 0.00 0.00 0.00 57 1017.8
20190524231558 81 321 3.0 9.0 0.00 0.00 0.00 56 1017.8
20190524230058 81 323 4.0 12.0 0.00 0.00 0.00 54 1017.8
20190524224612 82 327 6.0 15.0 0.00 0.00 0.00 53 1017.9
20190524223129 82 323 3.0 12.0 0.00 0.00 0.00 50 1017.8
20190524221638 83 313 6.0 12.0 0.00 0.00 0.00 48 1017.9
20190524220111 83 307 4.0 9.0 0.00 0.00 0.00 49 1017.9
20190524214548 83 316 5.0 11.0 0.00 0.00 0.00 47 1017.9
20190524213204 83 317 2.0 12.0 0.00 0.00 0.00 51 1017.9
20190524211626 83 323 4.0 14.0 0.00 0.00 0.00 50 1017.8
20190524210207 83 5 6.0 10.0 0.00 0.00 0.00 52 1017.8
20190524204614 84 12 2.0 10.0 0.00 0.00 0.00 50 1017.8
20190524203110 85 323 7.0 13.0 0.00 0.00 0.00 45 1017.8
20190524201610 85 289 3.0 13.0 0.00 0.00 0.00 45 1017.8
20190524200123 85 332 5.0 10.0 0.00 0.00 0.00 45 1017.9
20190524194627 85 335 9.0 14.0 0.00 0.00 0.00 44 1018.1
20190524193058 85 355 8.0 14.0 0.00 0.00 0.00 44 1018.1
20190524191559 85 297 6.0 12.0 0.00 0.00 0.00 45 1018.2
20190524190210 84 324 6.0 12.0 0.00 0.00 0.00 48 1018.2
20190524184609 84 311 7.0 14.0 0.00 0.00 0.00 46 1018.5
20190524183049 84 313 11.0 17.0 0.00 0.00 0.00 46 1018.6
20190524181617 84 313 8.0 13.0 0.00 0.00 0.00 48 1018.8
20190524180043 84 325 4.0 14.0 0.00 0.00 0.00 49 1018.9
20190524174542 84 335 6.0 16.0 0.00 0.00 0.00 45 1019.1
20190524173053 83 286 3.0 14.0 0.00 0.00 0.00 48 1019.2
20190524171557 83 284 6.0 18.0 0.00 0.00 0.00 48 1019.4
20190524170054 83 341 6.0 17.0 0.00 0.00 0.00 50 1019.6
20190524164537 83 336 5.0 14.0 0.00 0.00 0.00 54 1019.6
20190524163033 82 348 3.0 12.0 0.00 0.00 0.00 52 1019.6
20190524161541 82 243 3.0 15.0 0.00 0.00 0.00 54 1019.6
20190524160038 81 288 7.0 13.0 0.00 0.00 0.00 55 1019.7
20190524154516 80 242 1.0 12.0 0.00 0.00 0.00 64 1019.7
20190524153005 80 292 5.0 11.0 0.00 0.00 0.00 65 1019.8
20190524151709 79 321 3.0 9.0 0.00 0.00 0.00 64 1019.9
20190524150143 79 313 1.0 8.0 0.00 0.00 0.00 68 1020.0
20190524144721 78 25 2.0 8.0 0.00 0.00 0.00 70 1020.2
20190524143131 78 5 2.0 9.0 0.00 0.00 0.00 68 1020.1
20190524141624 77 277 1.0 8.0 0.00 0.00 0.00 70 1020.1
20190524140138 77 355 3.0 6.0 0.00 0.00 0.00 69 1020.1
20190524134638 77 35 1.0 4.0 0.00 0.00 0.00 71 1020.0
20190524133122 75 360 2.0 5.0 0.00 0.00 0.00 74 1019.9
20190524131617 74 342 2.0 4.0 0.00 0.00 0.00 78 1019.9
20190524130103 73 339 0.0 0.0 0.00 0.00 0.00 78 1019.9
20190524124605 71 339 0.0 2.0 0.00 0.00 0.00 81 1019.8
20190524123115 69 339 0.0 3.0 0.00 0.00 0.00 86 1019.7
20190524121603 66 339 1.0 3.0 0.00 0.00 0.00 91 1019.8
20190524120019 63 339 1.0 4.0 0.00 0.00 0.00 95 1019.8
20190524114519 61 329 0.0 0.0 0.00 0.00 0.00 96 1019.9
20190524113030 60 329 0.0 0.0 0.00 0.00 0.00 97 1019.9
20190524111511 59 329 0.0 0.0 0.00 0.00 0.00 97 1019.7
20190524110022 58 329 0.0 1.0 0.00 0.00 0.00 97 1019.6
20190524104514 58 329 0.0 3.0 0.00 0.00 0.00 97 1019.3
20190524103200 58 329 0.0 0.0 0.00 0.00 0.00 97 1019.1
20190524101829 58 329 0.0 0.0 0.00 0.00 0.00 97 1018.8
20190524100153 58 329 0.0 0.0 0.00 0.00 0.00 97 1018.8
20190524094644 58 329 0.0 0.0 0.00 0.00 0.00 97 1018.7
20190524093221 58 329 0.0 0.0 0.00 0.00 0.00 97 1018.8
20190524091621 58 329 0.0 0.0 0.00 0.00 0.00 96 1018.7
20190524090210 59 329 0.0 0.0 0.00 0.00 0.00 96 1018.6
20190524084627 59 329 0.0 0.0 0.00 0.00 0.00 97 1018.6
20190524083216 59 329 0.0 0.0 0.00 0.00 0.00 96 1018.5
20190524081701 59 329 0.0 0.0 0.00 0.00 0.00 96 1018.6
20190524080110 59 329 0.0 0.0 0.00 0.00 0.00 96 1018.5
20190524074649 60 329 0.0 0.0 0.00 0.00 0.00 96 1018.6
20190524073121 60 329 0.0 0.0 0.00 0.00 0.00 96 1018.6
20190524071630 60 329 0.0 0.0 0.00 0.00 0.00 96 1018.5
20190524070112 60 329 0.0 0.0 0.00 0.00 0.00 96 1018.6
20190524064617 61 329 0.0 0.0 0.00 0.00 0.00 96 1018.6
20190524063112 61 329 0.0 0.0 0.00 0.00 0.00 96 1018.5
20190524061611 61 329 0.0 0.0 0.00 0.00 0.00 95 1018.6
20190524060127 62 329 0.0 0.0 0.00 0.00 0.00 95 1018.7
20190524054615 62 329 0.0 0.0 0.00 0.00 0.00 95 1018.9
20190524053056 62 329 0.0 0.0 0.00 0.00 0.00 96 1019.1
20190524051614 62 329 0.0 0.0 0.00 0.00 0.00 95 1019.1
20190524050053 63 329 0.0 0.0 0.00 0.00 0.00 95 1019.3
20190524044637 63 329 0.0 0.0 0.00 0.00 0.00 95 1019.2
20190524043040 64 329 0.0 0.0 0.00 0.00 0.00 94 1019.4
20190524041552 64 329 0.0 0.0 0.00 0.00 0.00 94 1019.4
20190524040026 65 329 0.0 0.0 0.00 0.00 0.00 93 1019.5
20190524034548 65 329 0.0 0.0 0.00 0.00 0.00 93 1019.6
20190524033033 65 329 0.0 0.0 0.00 0.00 0.00 93 1019.6
20190524031548 66 329 0.0 0.0 0.00 0.00 0.00 92 1019.5
20190524030026 67 329 0.0 0.0 0.00 0.00 0.00 91 1019.4
20190524024519 67 329 0.0 0.0 0.00 0.00 0.00 90 1019.2
20190524023032 68 329 0.0 0.0 0.00 0.00 0.00 90 1019.0
20190524021532 69 329 0.0 0.0 0.00 0.00 0.00 88 1018.8
20190524020047 69 329 0.0 0.0 0.00 0.00 0.00 87 1018.6
20190524014538 70 329 0.0 0.0 0.00 0.00 0.00 84 1018.6
20190524013029 71 329 0.0 0.0 0.00 0.00 0.00 83 1018.5
20190524011515 72 329 0.0 1.0 0.00 0.00 0.00 80 1018.6